Time;durP1;ratioP1;P1;durP2;ratioP2;P2;SDS_P1;SDS_P2;PMS_P1;PMS_P2;Temp;Humidity;BMP_temperature;BMP_pressure;BME280_temperature;BME280_humidity;BME280_pressure;Samples;Min_cycle;Max_cycle;Signal;HPM_P1;HPM_P2
2024/03/14 00:02:11;;;;;;;5.63;2.72;;;;;;;;;;10400384;28;20091;-67
2024/03/14 00:07:14;;;;;;;3.63;2.40;;;;;;;;;;10425009;28;20404;-67
2024/03/14 00:12:18;;;;;;;3.55;2.47;;;;;;;;;;10426153;28;20483;-67
2024/03/14 00:17:18;;;;;;;3.63;2.28;;;;;;;;;;10411517;28;20029;-64
2024/03/14 00:22:19;;;;;;;5.38;2.63;;;;;;;;;;10417363;28;20029;-65
2024/03/14 00:27:19;;;;;;;3.78;2.40;;;;;;;;;;10402248;28;20038;-66
2024/03/14 00:32:20;;;;;;;3.47;2.05;;;;;;;;;;10404065;28;20487;-66
2024/03/14 00:37:21;;;;;;;3.90;2.50;;;;;;;;;;10417243;28;20049;-66
2024/03/14 00:42:24;;;;;;;2.30;2.10;;;;;;;;;;10411001;28;20291;-65
2024/03/14 00:47:25;;;;;;;3.13;2.42;;;;;;;;;;10428261;28;20103;-66
2024/03/14 00:52:26;;;;;;;3.33;2.15;;;;;;;;;;10421330;28;20060;-66
2024/03/14 00:57:28;;;;;;;3.65;2.28;;;;;;;;;;10410067;28;20080;-65
2024/03/14 01:02:29;;;;;;;2.78;2.20;;;;;;;;;;10419761;28;20067;-63
2024/03/14 01:07:29;;;;;;;3.97;2.65;;;;;;;;;;10401666;28;20108;-65
2024/03/14 01:12:30;;;;;;;3.83;2.58;;;;;;;;;;10412393;28;20029;-66
2024/03/14 01:17:30;;;;;;;3.92;2.40;;;;;;;;;;10396871;28;20030;-66
2024/03/14 01:22:32;;;;;;;5.05;2.55;;;;;;;;;;10418401;28;20021;-65
2024/03/14 01:27:32;;;;;;;3.95;2.70;;;;;;;;;;10394851;28;20458;-66
2024/03/14 01:32:33;;;;;;;3.47;2.45;;;;;;;;;;10409222;28;20152;-65
2024/03/14 01:37:34;;;;;;;2.40;2.20;;;;;;;;;;10415152;28;20045;-66
2024/03/14 01:42:35;;;;;;;3.53;2.45;;;;;;;;;;10398447;28;20026;-65
2024/03/14 01:47:36;;;;;;;3.63;2.53;;;;;;;;;;10408728;28;20036;-66
2024/03/14 01:52:37;;;;;;;5.05;2.80;;;;;;;;;;10408386;28;20018;-66
2024/03/14 01:57:39;;;;;;;3.35;2.65;;;;;;;;;;10410298;28;20489;-67
2024/03/14 02:02:40;;;;;;;3.20;2.55;;;;;;;;;;10396403;28;20037;-66
2024/03/14 02:07:42;;;;;;;3.90;2.60;;;;;;;;;;10409438;28;20033;-64
2024/03/14 02:12:43;;;;;;;3.63;2.70;;;;;;;;;;10407583;28;20179;-64
2024/03/14 02:17:44;;;;;;;4.10;2.42;;;;;;;;;;10408882;28;20028;-63
2024/03/14 02:22:45;;;;;;;3.38;2.40;;;;;;;;;;10402510;28;20036;-65
2024/03/14 02:27:46;;;;;;;2.90;2.50;;;;;;;;;;10401553;28;20038;-64
2024/03/14 02:32:47;;;;;;;3.50;2.60;;;;;;;;;;10408218;28;20088;-59
2024/03/14 02:37:48;;;;;;;3.15;2.40;;;;;;;;;;10391678;28;20369;-60
2024/03/14 02:42:49;;;;;;;2.47;2.28;;;;;;;;;;10418218;28;20033;-59
2024/03/14 02:47:49;;;;;;;2.75;2.55;;;;;;;;;;10405957;28;20028;-60
2024/03/14 02:52:50;;;;;;;2.90;2.25;;;;;;;;;;10426399;28;20413;-60
2024/03/14 02:57:50;;;;;;;2.40;2.17;;;;;;;;;;10405755;28;20056;-59
2024/03/14 03:02:52;;;;;;;3.30;2.72;;;;;;;;;;10414190;28;20029;-59
2024/03/14 03:07:54;;;;;;;3.03;2.70;;;;;;;;;;10404982;28;20100;-59
2024/03/14 03:12:55;;;;;;;4.00;2.47;;;;;;;;;;10424607;28;20036;-60
2024/03/14 03:17:55;;;;;;;3.10;2.42;;;;;;;;;;10412623;28;20374;-59
2024/03/14 03:23:12;;;;;;;2.70;2.40;;;;;;;;;;10421166;28;20087;-62
2024/03/14 03:28:13;;;;;;;4.38;2.60;;;;;;;;;;10413960;28;20024;-59
2024/03/14 03:33:18;;;;;;;3.63;2.50;;;;;;;;;;10409053;28;20239;-60
2024/03/14 03:38:18;;;;;;;4.10;2.65;;;;;;;;;;10413148;28;20037;-60
2024/03/14 03:43:19;;;;;;;4.03;2.60;;;;;;;;;;10432067;28;20086;-61
2024/03/14 03:48:20;;;;;;;4.75;2.90;;;;;;;;;;10412741;28;20025;-60
2024/03/14 03:53:20;;;;;;;4.93;2.67;;;;;;;;;;10428053;28;20044;-65
2024/03/14 03:58:22;;;;;;;3.78;2.70;;;;;;;;;;10399106;28;20041;-59
2024/03/14 04:03:23;;;;;;;3.85;2.60;;;;;;;;;;10423515;28;20029;-58
2024/03/14 04:08:24;;;;;;;3.10;2.80;;;;;;;;;;10408003;28;20030;-59
2024/03/14 04:13:26;;;;;;;2.97;2.65;;;;;;;;;;10414585;28;20149;-59
2024/03/14 04:18:29;;;;;;;2.65;2.35;;;;;;;;;;10415936;28;20253;-59
2024/03/14 04:23:29;;;;;;;3.33;2.70;;;;;;;;;;10411313;28;20028;-59
2024/03/14 04:28:33;;;;;;;3.40;2.92;;;;;;;;;;10400898;28;20025;-59
2024/03/14 04:33:34;;;;;;;3.58;2.45;;;;;;;;;;10393069;28;20188;-60
2024/03/14 04:38:35;;;;;;;3.78;2.78;;;;;;;;;;10420776;28;21217;-61
2024/03/14 04:43:35;;;;;;;3.90;2.72;;;;;;;;;;10410062;28;20029;-60
2024/03/14 04:48:36;;;;;;;4.10;3.03;;;;;;;;;;10413982;28;20472;-61
2024/03/14 04:53:36;;;;;;;3.08;2.30;;;;;;;;;;10397998;28;20450;-60
2024/03/14 04:58:37;;;;;;;3.20;2.53;;;;;;;;;;10398842;28;20033;-59
2024/03/14 05:03:38;;;;;;;2.60;2.40;;;;;;;;;;10420488;28;20026;-61
2024/03/14 05:08:39;;;;;;;3.10;2.67;;;;;;;;;;10404704;28;20033;-61
2024/03/14 05:13:39;;;;;;;2.78;2.42;;;;;;;;;;10389822;28;20071;-59
2024/03/14 05:18:40;;;;;;;2.63;2.42;;;;;;;;;;10382730;28;20036;-60
2024/03/14 05:23:41;;;;;;;3.55;2.50;;;;;;;;;;10393613;28;20034;-60
2024/03/14 05:28:41;;;;;;;2.95;2.28;;;;;;;;;;10398885;28;20037;-59
2024/03/14 05:33:43;;;;;;;2.85;2.55;;;;;;;;;;10405183;28;20044;-59
2024/03/14 05:38:43;;;;;;;4.15;2.90;;;;;;;;;;10407876;28;20060;-59
2024/03/14 05:43:45;;;;;;;2.75;2.42;;;;;;;;;;10387737;28;20486;-59
2024/03/14 05:48:45;;;;;;;3.10;2.72;;;;;;;;;;10387797;28;20041;-59
2024/03/14 05:53:46;;;;;;;5.93;2.58;;;;;;;;;;10404029;28;20045;-59
2024/03/14 05:58:46;;;;;;;4.85;2.45;;;;;;;;;;10376044;28;20084;-59
2024/03/14 06:03:47;;;;;;;3.80;2.40;;;;;;;;;;10391602;28;20034;-59
2024/03/14 06:08:48;;;;;;;2.70;2.42;;;;;;;;;;10388360;28;20054;-59
2024/03/14 06:13:50;;;;;;;2.97;2.40;;;;;;;;;;10391657;28;20212;-59
2024/03/14 06:18:51;;;;;;;2.85;2.40;;;;;;;;;;10399160;28;20107;-59
2024/03/14 06:23:52;;;;;;;3.78;2.50;;;;;;;;;;10401549;28;20075;-62
2024/03/14 06:28:54;;;;;;;2.42;2.22;;;;;;;;;;10417097;28;20396;-60
2024/03/14 06:33:54;;;;;;;3.65;2.67;;;;;;;;;;10389825;28;20497;-60
2024/03/14 06:38:55;;;;;;;2.25;2.05;;;;;;;;;;10409348;28;20037;-60
2024/03/14 06:43:57;;;;;;;3.35;2.45;;;;;;;;;;10413144;28;20079;-60
2024/03/14 06:48:58;;;;;;;2.40;2.17;;;;;;;;;;10400547;28;20563;-60
2024/03/14 06:53:58;;;;;;;2.60;2.40;;;;;;;;;;10414540;28;20120;-60
2024/03/14 06:58:59;;;;;;;2.28;2.05;;;;;;;;;;10415831;28;20045;-65
2024/03/14 07:04:01;;;;;;;11.02;4.35;;;;;;;;;;10408606;28;20713;-61
2024/03/14 07:09:01;;;;;;;12.63;3.70;;;;;;;;;;10412537;28;20025;-61
2024/03/14 07:14:02;;;;;;;9.07;4.50;;;;;;;;;;10416903;28;20032;-59
2024/03/14 07:19:03;;;;;;;13.82;6.22;;;;;;;;;;10426148;28;20536;-59
2024/03/14 07:24:03;;;;;;;12.63;6.00;;;;;;;;;;10403902;28;20476;-60
2024/03/14 07:29:05;;;;;;;11.45;6.63;;;;;;;;;;10404717;28;20033;-59
2024/03/14 07:34:07;;;;;;;16.40;6.30;;;;;;;;;;10399074;28;20171;-58
2024/03/14 07:39:09;;;;;;;12.18;6.35;;;;;;;;;;10411306;28;20436;-63
2024/03/14 07:44:10;;;;;;;10.07;6.38;;;;;;;;;;10405022;28;20030;-58
2024/03/14 07:49:11;;;;;;;11.13;6.55;;;;;;;;;;10391024;28;20057;-59
2024/03/14 07:54:14;;;;;;;11.02;6.03;;;;;;;;;;10406265;28;20060;-58
2024/03/14 07:59:14;;;;;;;8.38;5.30;;;;;;;;;;10402423;28;20063;-59
2024/03/14 08:04:22;;;;;;;12.68;5.30;;;;;;;;;;10411254;28;20033;-59
2024/03/14 08:09:26;;;;;;;10.27;5.32;;;;;;;;;;10419573;28;20300;-59
2024/03/14 08:14:26;;;;;;;12.95;4.95;;;;;;;;;;10413403;28;20409;-62
2024/03/14 08:19:30;;;;;;;6.07;5.20;;;;;;;;;;10425359;28;20029;-59
2024/03/14 08:24:41;;;;;;;6.78;4.82;;;;;;;;;;10407719;28;20037;-59
2024/03/14 08:29:42;;;;;;;7.03;4.90;;;;;;;;;;10412113;28;20037;-60
2024/03/14 08:34:43;;;;;;;5.53;4.53;;;;;;;;;;10407282;28;20052;-58
2024/03/14 08:39:44;;;;;;;6.85;4.47;;;;;;;;;;10411224;28;20048;-61
2024/03/14 08:44:44;;;;;;;8.23;4.28;;;;;;;;;;10420378;28;20254;-59
2024/03/14 08:49:47;;;;;;;11.38;4.50;;;;;;;;;;10413659;28;20034;-59
2024/03/14 08:54:49;;;;;;;6.50;4.45;;;;;;;;;;10426466;28;20061;-58
2024/03/14 08:59:50;;;;;;;8.52;4.63;;;;;;;;;;10426470;28;20041;-58
2024/03/14 09:04:51;;;;;;;8.20;4.32;;;;;;;;;;10396385;28;20075;-59
2024/03/14 09:09:52;;;;;;;7.15;4.50;;;;;;;;;;10424075;28;20037;-59
2024/03/14 09:14:54;;;;;;;5.95;4.20;;;;;;;;;;10421362;28;20033;-58
2024/03/14 09:19:54;;;;;;;6.32;4.20;;;;;;;;;;10418341;28;20065;-59
2024/03/14 09:24:57;;;;;;;7.13;4.40;;;;;;;;;;10404871;28;20037;-59
2024/03/14 09:29:57;;;;;;;5.95;4.20;;;;;;;;;;10413495;28;20021;-59
2024/03/14 09:34:58;;;;;;;5.07;3.58;;;;;;;;;;10398937;28;20053;-59
2024/03/14 09:39:59;;;;;;;7.05;4.10;;;;;;;;;;10416730;28;20044;-59
2024/03/14 09:45:01;;;;;;;4.90;3.85;;;;;;;;;;10413328;28;20044;-58
2024/03/14 09:50:06;;;;;;;4.15;3.75;;;;;;;;;;10414956;28;20492;-59
2024/03/14 09:55:09;;;;;;;5.35;3.40;;;;;;;;;;10421209;28;20036;-59
2024/03/14 10:00:13;;;;;;;4.68;3.60;;;;;;;;;;10406707;28;20022;-59
2024/03/14 10:05:19;;;;;;;5.97;3.90;;;;;;;;;;10424089;28;20048;-59
2024/03/14 10:10:19;;;;;;;8.32;4.18;;;;;;;;;;10396662;28;20041;-58
2024/03/14 10:15:23;;;;;;;4.20;3.75;;;;;;;;;;10423293;28;20029;-58
2024/03/14 10:20:24;;;;;;;4.05;3.60;;;;;;;;;;10407538;28;20088;-59
2024/03/14 10:25:28;;;;;;;6.85;4.22;;;;;;;;;;10411203;28;20041;-58
2024/03/14 10:30:32;;;;;;;6.25;3.70;;;;;;;;;;10414227;28;20029;-59
2024/03/14 10:35:33;;;;;;;6.50;3.72;;;;;;;;;;10397991;28;20045;-59
2024/03/14 10:40:37;;;;;;;3.95;3.40;;;;;;;;;;10425747;28;20071;-61
2024/03/14 10:45:39;;;;;;;5.07;3.83;;;;;;;;;;10401197;28;20378;-59
2024/03/14 10:50:39;;;;;;;5.95;3.55;;;;;;;;;;10398420;28;20033;-59
2024/03/14 10:55:40;;;;;;;4.40;3.65;;;;;;;;;;10401749;28;20055;-59
2024/03/14 11:00:40;;;;;;;5.25;3.40;;;;;;;;;;10408801;28;20424;-59
2024/03/14 11:05:41;;;;;;;5.07;3.28;;;;;;;;;;10412500;28;20095;-59
2024/03/14 11:10:46;;;;;;;4.45;3.53;;;;;;;;;;10416843;28;20406;-59
2024/03/14 11:15:48;;;;;;;4.10;3.13;;;;;;;;;;10416079;28;20025;-59
2024/03/14 11:20:54;;;;;;;5.43;3.75;;;;;;;;;;10392282;28;20028;-59
2024/03/14 11:26:02;;;;;;;4.72;3.50;;;;;;;;;;10387380;28;20083;-59
2024/03/14 11:31:03;;;;;;;7.83;3.80;;;;;;;;;;10405849;28;20102;-60
2024/03/14 11:36:05;;;;;;;8.30;3.75;;;;;;;;;;10404209;28;20059;-60
2024/03/14 11:41:13;;;;;;;5.60;4.00;;;;;;;;;;10418093;28;20176;-59
2024/03/14 11:46:14;;;;;;;;;;;;;;;;;;10412682;28;20091;-59
2024/03/14 11:51:18;;;;;;;5.97;3.63;;;;;;;;;;10429631;28;19925;-59
2024/03/14 11:56:19;;;;;;;5.43;3.42;;;;;;;;;;10412533;28;20489;-59
2024/03/14 12:01:20;;;;;;;4.63;3.75;;;;;;;;;;10418806;28;20026;-58
2024/03/14 12:06:25;;;;;;;6.40;3.70;;;;;;;;;;10404646;28;20033;-59
2024/03/14 12:11:29;;;;;;;4.13;3.63;;;;;;;;;;10422967;28;20125;-59
2024/03/14 12:16:29;;;;;;;8.02;3.60;;;;;;;;;;10422683;28;20034;-60
2024/03/14 12:21:32;;;;;;;5.05;3.30;;;;;;;;;;10411389;28;20397;-61
2024/03/14 12:26:33;;;;;;;3.92;3.47;;;;;;;;;;10429002;28;20478;-59
2024/03/14 12:31:35;;;;;;;7.50;3.53;;;;;;;;;;10397665;28;20465;-59
2024/03/14 12:36:36;;;;;;;7.93;3.95;;;;;;;;;;10408306;28;20057;-59
2024/03/14 12:41:38;;;;;;;6.43;3.60;;;;;;;;;;10410936;28;20037;-59
2024/03/14 12:46:38;;;;;;;5.10;3.28;;;;;;;;;;10408236;28;20473;-59
2024/03/14 12:51:41;;;;;;;5.22;3.35;;;;;;;;;;10410798;28;20159;-59
2024/03/14 12:56:43;;;;;;;3.53;3.20;;;;;;;;;;10409480;28;20028;-60
2024/03/14 13:01:44;;;;;;;3.97;3.58;;;;;;;;;;10415685;28;20041;-59
2024/03/14 13:06:45;;;;;;;5.78;4.38;;;;;;;;;;10414756;28;20420;-61
2024/03/14 13:12:04;;;;;;;4.97;4.10;;;;;;;;;;10406675;28;20021;-58
2024/03/14 13:17:11;;;;;;;6.38;3.55;;;;;;;;;;10412929;28;20300;-61
2024/03/14 13:22:13;;;;;;;5.28;4.07;;;;;;;;;;10407617;28;20037;-62
2024/03/14 13:27:13;;;;;;;5.72;3.55;;;;;;;;;;10421681;28;20076;-59
2024/03/14 13:32:14;;;;;;;5.65;4.05;;;;;;;;;;10417081;28;20042;-59
2024/03/14 13:37:14;;;;;;;5.13;3.70;;;;;;;;;;10401498;28;20500;-58
2024/03/14 13:42:18;;;;;;;4.82;3.63;;;;;;;;;;10417859;28;20559;-59
2024/03/14 13:47:20;;;;;;;5.57;3.35;;;;;;;;;;10411610;28;20116;-58
2024/03/14 13:52:21;;;;;;;5.05;3.92;;;;;;;;;;10402440;28;20112;-60
2024/03/14 13:57:22;;;;;;;6.00;3.65;;;;;;;;;;10411463;28;20128;-59
2024/03/14 14:02:23;;;;;;;5.60;3.97;;;;;;;;;;10394786;28;20034;-60
2024/03/14 14:07:23;;;;;;;4.95;3.35;;;;;;;;;;10411065;28;20028;-59
2024/03/14 14:12:25;;;;;;;5.55;4.05;;;;;;;;;;10413655;28;20029;-59
2024/03/14 14:17:26;;;;;;;8.00;4.28;;;;;;;;;;10417027;28;20412;-59
2024/03/14 14:22:28;;;;;;;15.93;4.25;;;;;;;;;;10420547;28;20029;-59
2024/03/14 14:27:30;;;;;;;6.70;4.07;;;;;;;;;;10406917;28;20101;-59
2024/03/14 14:32:31;;;;;;;7.32;4.60;;;;;;;;;;10398792;28;20413;-59
2024/03/14 14:37:31;;;;;;;9.23;4.75;;;;;;;;;;10418325;28;20049;-61
2024/03/14 14:42:32;;;;;;;14.63;5.00;;;;;;;;;;10408518;28;20037;-60
2024/03/14 14:47:35;;;;;;;25.65;6.50;;;;;;;;;;10417574;28;20049;-59
2024/03/14 14:52:37;;;;;;;25.35;8.77;;;;;;;;;;10415546;28;20060;-61
2024/03/14 14:57:42;;;;;;;47.45;10.38;;;;;;;;;;10412274;28;20469;-59
2024/03/14 15:02:46;;;;;;;28.33;12.45;;;;;;;;;;10406451;28;20071;-60
2024/03/14 15:07:47;;;;;;;50.40;11.20;;;;;;;;;;10403232;28;20496;-59
2024/03/14 15:12:47;;;;;;;33.58;11.02;;;;;;;;;;10412866;28;20022;-62
2024/03/14 15:17:51;;;;;;;21.42;11.10;;;;;;;;;;10388575;28;20029;-61
2024/03/14 15:22:52;;;;;;;26.83;11.43;;;;;;;;;;10405613;28;20046;-58
2024/03/14 15:27:53;;;;;;;22.70;11.25;;;;;;;;;;10418797;28;20418;-58
2024/03/14 15:32:54;;;;;;;18.65;11.18;;;;;;;;;;10400446;28;20026;-59
2024/03/14 15:37:58;;;;;;;20.48;10.63;;;;;;;;;;10397511;28;20389;-58
2024/03/14 15:42:58;;;;;;;21.60;10.27;;;;;;;;;;10408682;28;20112;-59
2024/03/14 15:48:00;;;;;;;33.78;10.77;;;;;;;;;;10410725;28;20156;-58
2024/03/14 15:53:01;;;;;;;16.23;9.00;;;;;;;;;;10405312;28;20048;-58
2024/03/14 15:58:01;;;;;;;17.80;8.52;;;;;;;;;;10412738;28;20362;-58
2024/03/14 16:03:03;;;;;;;13.88;8.70;;;;;;;;;;10408600;28;20026;-58
2024/03/14 16:08:04;;;;;;;17.08;8.45;;;;;;;;;;10403934;28;20381;-58
2024/03/14 16:13:06;;;;;;;13.52;7.38;;;;;;;;;;10418768;28;20026;-58
2024/03/14 16:18:07;;;;;;;17.58;8.02;;;;;;;;;;10404427;28;20044;-58
2024/03/14 16:23:08;;;;;;;10.65;7.70;;;;;;;;;;10412867;28;20060;-58
2024/03/14 16:28:09;;;;;;;9.88;7.07;;;;;;;;;;10402221;28;20131;-58
2024/03/14 16:33:12;;;;;;;13.35;6.68;;;;;;;;;;10412322;28;20041;-58
2024/03/14 16:38:12;;;;;;;8.77;6.13;;;;;;;;;;10407379;28;20084;-58
2024/03/14 16:43:14;;;;;;;13.07;6.25;;;;;;;;;;10418783;28;20037;-59
2024/03/14 16:48:16;;;;;;;10.23;6.15;;;;;;;;;;10411419;28;20029;-59
2024/03/14 16:53:16;;;;;;;13.60;6.25;;;;;;;;;;10417622;28;20030;-58
2024/03/14 16:58:19;;;;;;;12.27;5.63;;;;;;;;;;10410676;28;20025;-58
2024/03/14 17:03:23;;;;;;;9.20;5.85;;;;;;;;;;10422035;28;20060;-59
2024/03/14 17:08:24;;;;;;;11.65;5.38;;;;;;;;;;10412510;28;20083;-58
2024/03/14 17:13:29;;;;;;;8.95;5.78;;;;;;;;;;10416206;28;20084;-59
2024/03/14 17:18:32;;;;;;;10.07;5.07;;;;;;;;;;10413858;28;20033;-59
2024/03/14 17:23:33;;;;;;;7.68;5.15;;;;;;;;;;10422815;28;20083;-62
2024/03/14 17:28:35;;;;;;;8.88;5.38;;;;;;;;;;10421358;28;20040;-59
2024/03/14 17:33:38;;;;;;;12.63;5.32;;;;;;;;;;10400908;28;20056;-59
2024/03/14 17:38:39;;;;;;;5.60;4.85;;;;;;;;;;10427111;28;20302;-59
2024/03/14 17:43:40;;;;;;;8.32;4.90;;;;;;;;;;10411051;28;20177;-59
2024/03/14 17:48:42;;;;;;;9.68;4.25;;;;;;;;;;10425513;28;20248;-59
2024/03/14 17:53:43;;;;;;;6.68;4.57;;;;;;;;;;10407103;28;20380;-59
2024/03/14 17:58:47;;;;;;;9.45;4.20;;;;;;;;;;10428962;28;20040;-59
2024/03/14 18:03:48;;;;;;;7.97;4.70;;;;;;;;;;10412400;28;20033;-58
2024/03/14 18:08:48;;;;;;;6.85;4.13;;;;;;;;;;10418710;28;20037;-59
2024/03/14 18:13:49;;;;;;;6.05;4.13;;;;;;;;;;10415692;28;20037;-59
2024/03/14 18:18:50;;;;;;;6.88;4.05;;;;;;;;;;10421617;28;20166;-59
2024/03/14 18:23:50;;;;;;;7.55;4.47;;;;;;;;;;10412752;28;20071;-59
2024/03/14 18:28:51;;;;;;;6.63;4.55;;;;;;;;;;10419108;28;20044;-59
2024/03/14 18:33:51;;;;;;;7.60;4.63;;;;;;;;;;10416550;28;20087;-59
2024/03/14 18:38:52;;;;;;;5.65;4.38;;;;;;;;;;10409685;28;20055;-58
2024/03/14 18:43:53;;;;;;;7.05;4.57;;;;;;;;;;10421509;28;20064;-59
2024/03/14 18:48:54;;;;;;;14.07;4.40;;;;;;;;;;10409930;28;20037;-58
2024/03/14 18:53:57;;;;;;;8.40;4.00;;;;;;;;;;10416669;28;20037;-57
2024/03/14 18:58:58;;;;;;;9.27;4.35;;;;;;;;;;10413842;28;20033;-58
2024/03/14 19:03:58;;;;;;;6.70;4.28;;;;;;;;;;10423819;28;20596;-58
2024/03/14 19:09:00;;;;;;;6.72;3.97;;;;;;;;;;10414782;28;20287;-57
2024/03/14 19:14:01;;;;;;;8.43;4.47;;;;;;;;;;10425022;28;20021;-58
2024/03/14 19:19:04;;;;;;;4.30;3.90;;;;;;;;;;10424147;28;20444;-58
2024/03/14 19:24:05;;;;;;;7.65;4.20;;;;;;;;;;10423339;28;20032;-57
2024/03/14 19:29:10;;;;;;;5.93;3.72;;;;;;;;;;10423467;28;20037;-59
2024/03/14 19:34:11;;;;;;;5.35;4.55;;;;;;;;;;10413800;28;20493;-58
2024/03/14 19:39:15;;;;;;;5.53;4.15;;;;;;;;;;10401658;28;20477;-58
2024/03/14 19:44:16;;;;;;;4.78;4.15;;;;;;;;;;10403651;28;20407;-58
2024/03/14 19:49:17;;;;;;;7.15;3.75;;;;;;;;;;10425114;28;20052;-58
2024/03/14 19:54:18;;;;;;;6.00;3.85;;;;;;;;;;10399245;28;20034;-57
2024/03/14 19:59:20;;;;;;;5.03;3.70;;;;;;;;;;10423329;28;20029;-56
2024/03/14 20:04:21;;;;;;;5.05;3.92;;;;;;;;;;10412352;28;20025;-57
2024/03/14 20:09:21;;;;;;;8.27;4.35;;;;;;;;;;10415979;28;20034;-56
2024/03/14 20:14:22;;;;;;;11.75;4.57;;;;;;;;;;10406020;28;20029;-57
2024/03/14 20:19:23;;;;;;;11.07;4.70;;;;;;;;;;10404908;28;20084;-56
2024/03/14 20:24:24;;;;;;;11.15;4.60;;;;;;;;;;10418821;28;20060;-53
2024/03/14 20:29:24;;;;;;;15.15;4.50;;;;;;;;;;10403096;28;20034;-61
2024/03/14 20:34:25;;;;;;;10.10;4.40;;;;;;;;;;10400530;28;20048;-55
2024/03/14 20:39:26;;;;;;;9.98;4.00;;;;;;;;;;10409594;28;20381;-55
2024/03/14 20:44:28;;;;;;;7.93;4.45;;;;;;;;;;10383798;28;20121;-65
2024/03/14 20:49:29;;;;;;;6.60;4.03;;;;;;;;;;10408912;28;20028;-57
2024/03/14 20:54:30;;;;;;;8.32;4.18;;;;;;;;;;10398924;28;20029;-58
2024/03/14 20:59:32;;;;;;;8.73;4.03;;;;;;;;;;10406626;28;20136;-60
2024/03/14 21:04:33;;;;;;;10.65;3.55;;;;;;;;;;10415217;28;20030;-60
2024/03/14 21:09:33;;;;;;;7.38;3.80;;;;;;;;;;10397679;28;20025;-65
2024/03/14 21:14:35;;;;;;;14.63;4.22;;;;;;;;;;10410762;28;20033;-66
2024/03/14 21:19:36;;;;;;;12.13;4.63;;;;;;;;;;10410374;28;20033;-59
2024/03/14 21:24:38;;;;;;;29.50;4.47;;;;;;;;;;10412463;28;20029;-57
2024/03/14 21:29:39;;;;;;;12.07;4.45;;;;;;;;;;10408834;28;20036;-63
2024/03/14 21:34:40;;;;;;;10.43;3.92;;;;;;;;;;10396228;28;20054;-58
2024/03/14 21:39:43;;;;;;;9.60;3.72;;;;;;;;;;10403788;28;20040;-57
2024/03/14 21:44:46;;;;;;;10.25;3.80;;;;;;;;;;10408330;28;20034;-56
2024/03/14 21:49:47;;;;;;;7.28;4.05;;;;;;;;;;10415372;28;20037;-58
2024/03/14 21:54:48;;;;;;;7.70;3.95;;;;;;;;;;10401490;28;20481;-57
2024/03/14 21:59:49;;;;;;;9.10;3.92;;;;;;;;;;10409030;28;20036;-56
2024/03/14 22:04:49;;;;;;;7.38;3.92;;;;;;;;;;10405015;28;20045;-58
2024/03/14 22:09:50;;;;;;;6.20;3.25;;;;;;;;;;10408094;28;20059;-58
2024/03/14 22:14:56;;;;;;;16.75;3.63;;;;;;;;;;10405063;28;20017;-57
2024/03/14 22:19:57;;;;;;;8.25;3.58;;;;;;;;;;10410061;28;20083;-58
2024/03/14 22:24:58;;;;;;;6.90;3.35;;;;;;;;;;10394756;28;20017;-58
2024/03/14 22:29:58;;;;;;;8.00;3.88;;;;;;;;;;10410654;28;20389;-58
2024/03/14 22:34:59;;;;;;;5.82;3.05;;;;;;;;;;10392401;28;20041;-57
2024/03/14 22:39:59;;;;;;;4.05;3.20;;;;;;;;;;10412130;28;20029;-58
2024/03/14 22:45:00;;;;;;;4.93;3.13;;;;;;;;;;10402311;28;20025;-58
2024/03/14 22:50:03;;;;;;;5.75;3.40;;;;;;;;;;10408104;28;20481;-58
2024/03/14 22:55:05;;;;;;;4.88;3.08;;;;;;;;;;10405348;28;20048;-58
2024/03/14 23:00:16;;;;;;;5.25;3.75;;;;;;;;;;10409826;28;20037;-58
2024/03/14 23:05:20;;;;;;;6.03;3.50;;;;;;;;;;10396374;28;20304;-56
2024/03/14 23:10:21;;;;;;;5.13;3.30;;;;;;;;;;10418283;28;20034;-57
2024/03/14 23:15:22;;;;;;;6.75;3.17;;;;;;;;;;10398101;28;20022;-69
2024/03/14 23:20:26;;;;;;;5.80;3.55;;;;;;;;;;10412893;28;20025;-60
2024/03/14 23:25:27;;;;;;;12.07;3.30;;;;;;;;;;10406510;28;20055;-66
2024/03/14 23:30:35;;;;;;;5.88;3.47;;;;;;;;;;10412088;28;20037;-57
2024/03/14 23:35:36;;;;;;;5.72;3.35;;;;;;;;;;10406584;28;20408;-57
2024/03/14 23:40:36;;;;;;;5.65;3.10;;;;;;;;;;10416209;28;20037;-59
2024/03/14 23:45:37;;;;;;;4.10;2.92;;;;;;;;;;10422563;28;20080;-58
2024/03/14 23:50:38;;;;;;;4.22;3.20;;;;;;;;;;10414309;28;20109;-59
2024/03/14 23:55:39;;;;;;;5.80;3.40;;;;;;;;;;10424336;28;20033;-59
